createdAt,value
2022-10-18T00:00:08.953Z,12.50
2022-10-18T00:02:38.065Z,12.41
2022-10-18T00:05:05.734Z,12.50
2022-10-18T00:07:32.945Z,12.45
2022-10-18T00:10:00.541Z,12.45
2022-10-18T00:12:28.875Z,12.47
2022-10-18T00:14:55.652Z,12.61
2022-10-18T00:17:22.422Z,12.39
2022-10-18T00:19:50.461Z,12.49
2022-10-18T00:22:17.322Z,12.38
2022-10-18T00:24:44.242Z,12.18
2022-10-18T00:27:11.329Z,12.13
2022-10-18T00:29:39.678Z,12.19
2022-10-18T00:32:06.758Z,12.20
2022-10-18T00:34:33.565Z,12.11
2022-10-18T00:37:00.445Z,12.04
2022-10-18T00:39:27.345Z,11.95
2022-10-18T00:41:54.151Z,11.84
2022-10-18T00:44:58.431Z,11.75
2022-10-18T00:47:26.961Z,11.78
2022-10-18T00:49:56.993Z,11.76
2022-10-18T00:52:35.648Z,11.89
2022-10-18T00:55:04.150Z,11.85
2022-10-18T00:57:31.938Z,11.87
2022-10-18T00:59:59.051Z,11.94
2022-10-18T01:02:29.030Z,11.93
2022-10-18T01:04:56.163Z,11.93
2022-10-18T01:07:34.442Z,11.95
2022-10-18T01:10:13.348Z,11.80
2022-10-18T01:12:48.738Z,11.89
2022-10-18T01:15:17.242Z,11.98
2022-10-18T01:17:54.294Z,12.04
2022-10-18T01:20:40.948Z,12.03
2022-10-18T01:23:16.014Z,12.09
2022-10-18T01:25:53.568Z,11.99
2022-10-18T01:28:34.479Z,11.92
2022-10-18T01:31:05.399Z,11.77
2022-10-18T01:33:39.482Z,11.78
2022-10-18T01:36:09.890Z,11.79
2022-10-18T01:38:38.695Z,11.72
2022-10-18T01:41:13.145Z,11.42
2022-10-18T01:43:43.700Z,11.70
2022-10-18T01:46:14.612Z,11.62
2022-10-18T01:48:41.747Z,11.60
2022-10-18T01:51:09.638Z,11.60
2022-10-18T01:53:36.590Z,11.59
2022-10-18T01:56:22.586Z,11.51
2022-10-18T01:58:59.543Z,11.58
2022-10-18T02:01:42.540Z,11.54
2022-10-18T02:04:20.449Z,11.44
2022-10-18T02:06:55.026Z,11.36
2022-10-18T02:09:30.436Z,11.26
2022-10-18T02:11:57.688Z,11.20
2022-10-18T02:14:25.907Z,11.22
2022-10-18T02:16:57.141Z,11.17
2022-10-18T02:19:28.584Z,11.07
2022-10-18T02:21:57.861Z,11.04
2022-10-18T02:24:30.542Z,11.07
2022-10-18T02:26:57.313Z,11.01
2022-10-18T02:29:24.315Z,10.86
2022-10-18T02:31:57.220Z,10.94
2022-10-18T02:34:29.477Z,10.80
2022-10-18T02:36:59.796Z,10.66
2022-10-18T02:39:30.327Z,10.81
2022-10-18T02:41:58.018Z,10.57
2022-10-18T02:44:25.279Z,10.52
2022-10-18T02:46:52.565Z,10.48
2022-10-18T02:49:20.737Z,10.49
2022-10-18T02:51:47.445Z,10.37
2022-10-18T02:54:14.317Z,10.28
2022-10-18T02:56:41.064Z,10.34
2022-10-18T02:59:08.292Z,10.51
2022-10-18T03:01:36.244Z,10.40
2022-10-18T03:04:04.103Z,10.33
2022-10-18T03:06:32.565Z,10.36
2022-10-18T03:08:59.407Z,10.47
2022-10-18T03:11:26.152Z,10.36
2022-10-18T03:13:52.980Z,10.42
2022-10-18T03:16:19.874Z,10.27
2022-10-18T03:18:46.843Z,10.26
2022-10-18T03:21:13.665Z,10.19
2022-10-18T03:23:42.344Z,10.28
2022-10-18T03:26:09.210Z,10.25
2022-10-18T03:28:35.941Z,10.17
2022-10-18T03:31:04.073Z,10.20
2022-10-18T03:33:31.977Z,10.15
2022-10-18T03:35:58.829Z,9.85
2022-10-18T03:38:25.731Z,9.85
2022-10-18T03:40:53.980Z,9.90
2022-10-18T03:43:20.770Z,9.82
2022-10-18T03:45:47.530Z,10.02
2022-10-18T03:48:14.239Z,10.10
2022-10-18T03:50:41.181Z,10.06
2022-10-18T03:53:07.971Z,10.09
2022-10-18T03:55:34.813Z,10.17
2022-10-18T03:58:05.584Z,10.19
2022-10-18T04:00:32.674Z,10.14
2022-10-18T04:02:59.411Z,10.06
2022-10-18T04:05:28.242Z,9.85
2022-10-18T04:07:55.587Z,10.07
2022-10-18T04:10:22.934Z,10.01
2022-10-18T04:12:49.716Z,9.92
2022-10-18T04:15:18.020Z,9.98
2022-10-18T04:17:44.790Z,9.90
2022-10-18T04:20:12.480Z,9.77
2022-10-18T04:22:39.284Z,9.98
2022-10-18T04:25:06.529Z,10.01
2022-10-18T04:27:33.824Z,9.94
2022-10-18T04:30:00.963Z,9.74
2022-10-18T04:32:29.480Z,9.72
2022-10-18T04:34:56.277Z,9.67
2022-10-18T04:37:23.030Z,9.65
2022-10-18T04:39:53.432Z,9.27
2022-10-18T04:42:20.801Z,9.13
2022-10-18T04:44:47.730Z,9.02
2022-10-18T04:47:14.922Z,8.97
2022-10-18T04:49:43.436Z,9.02
2022-10-18T04:52:10.648Z,9.36
2022-10-18T04:54:37.959Z,9.01
2022-10-18T04:57:04.829Z,9.06
2022-10-18T04:59:31.547Z,8.92
2022-10-18T05:01:58.680Z,8.82
2022-10-18T05:04:25.577Z,8.75
2022-10-18T05:06:53.686Z,8.73
2022-10-18T05:09:24.614Z,8.76
2022-10-18T05:11:51.560Z,8.78
2022-10-18T05:14:18.920Z,8.87
2022-10-18T05:16:45.719Z,9.00
2022-10-18T05:19:12.502Z,9.09
2022-10-18T05:21:39.286Z,8.80
2022-10-18T05:24:07.691Z,8.70
2022-10-18T05:26:34.483Z,8.66
2022-10-18T05:29:01.630Z,8.54
2022-10-18T05:31:28.596Z,8.50
2022-10-18T05:33:56.040Z,8.29
2022-10-18T05:36:22.883Z,8.20
2022-10-18T05:38:49.769Z,8.32
2022-10-18T05:41:18.098Z,8.30
2022-10-18T05:43:44.982Z,8.20
2022-10-18T05:46:15.397Z,8.10
2022-10-18T05:48:43.726Z,7.87
2022-10-18T05:51:10.477Z,7.94
2022-10-18T05:53:38.218Z,7.87
2022-10-18T05:56:06.251Z,7.80
2022-10-18T05:58:35.151Z,7.80
2022-10-18T06:01:06.759Z,7.88
2022-10-18T06:03:34.079Z,7.97
2022-10-18T06:06:01.421Z,7.96
2022-10-18T06:08:28.311Z,7.85
2022-10-18T06:10:55.463Z,7.86
2022-10-18T06:13:22.486Z,7.83
2022-10-18T06:15:50.713Z,7.86
2022-10-18T06:18:17.671Z,7.65
2022-10-18T06:20:44.396Z,7.68
2022-10-18T06:23:11.525Z,7.74
2022-10-18T06:25:41.386Z,7.67
2022-10-18T06:28:10.253Z,7.50
2022-10-18T06:30:39.097Z,7.36
2022-10-18T06:33:08.957Z,7.33
2022-10-18T06:35:36.043Z,7.33
2022-10-18T06:38:03.024Z,7.14
2022-10-18T06:40:33.968Z,7.40
2022-10-18T06:43:19.699Z,7.42
2022-10-18T06:45:51.115Z,7.56
2022-10-18T06:50:53.610Z,7.77
2022-10-18T06:53:20.607Z,7.87
2022-10-18T06:55:47.403Z,7.95
2022-10-18T06:58:18.906Z,8.01
2022-10-18T07:00:47.109Z,7.73
2022-10-18T07:03:14.363Z,7.98
2022-10-18T07:05:46.150Z,8.14
2022-10-18T07:08:13.177Z,8.01
2022-10-18T07:10:41.454Z,8.41
2022-10-18T07:13:30.802Z,8.55
2022-10-18T07:16:07.553Z,8.63
2022-10-18T07:18:35.578Z,8.63
2022-10-18T07:21:10.317Z,8.76
2022-10-18T07:23:40.671Z,9.04
2022-10-18T07:26:13.632Z,9.15
2022-10-18T07:28:45.293Z,9.06
2022-10-18T07:31:15.953Z,9.04
2022-10-18T07:33:45.769Z,9.15
2022-10-18T07:36:14.173Z,9.18
2022-10-18T07:38:41.583Z,9.15
2022-10-18T07:41:11.700Z,9.30
2022-10-18T07:43:42.472Z,9.25
2022-10-18T07:46:09.480Z,9.38
2022-10-18T07:48:38.721Z,9.56
2022-10-18T07:51:06.059Z,9.57
2022-10-18T07:53:34.734Z,9.55
2022-10-18T07:56:05.810Z,9.60
2022-10-18T07:58:35.557Z,9.64
2022-10-18T08:01:03.617Z,9.72
2022-10-18T08:03:30.465Z,9.63
2022-10-18T08:05:57.541Z,9.91
2022-10-18T08:08:25.731Z,10.08
2022-10-18T08:10:54.069Z,10.22
2022-10-18T08:13:21.212Z,10.18
2022-10-18T08:15:49.824Z,10.27
2022-10-18T08:18:16.688Z,10.48
2022-10-18T08:20:43.930Z,10.58
2022-10-18T08:23:10.830Z,10.67
2022-10-18T08:25:38.630Z,10.84
2022-10-18T08:28:07.387Z,10.93
2022-10-18T08:30:38.182Z,10.91
2022-10-18T08:33:05.064Z,10.86
2022-10-18T08:35:32.775Z,11.13
2022-10-18T08:38:03.919Z,11.25
2022-10-18T08:40:33.863Z,11.40
2022-10-18T08:43:19.328Z,11.46
2022-10-18T08:45:51.620Z,11.55
2022-10-18T08:48:25.284Z,11.63
2022-10-18T08:50:56.268Z,11.68
2022-10-18T08:53:29.019Z,11.85
2022-10-18T08:56:02.104Z,11.86
2022-10-18T08:58:33.611Z,11.91
2022-10-18T09:01:15.646Z,11.84
2022-10-18T09:04:03.731Z,12.10
2022-10-18T09:06:35.747Z,12.29
2022-10-18T09:09:28.299Z,12.39
2022-10-18T09:12:12.045Z,12.41
2022-10-18T09:15:26.108Z,12.59
2022-10-18T09:18:07.580Z,12.86
2022-10-18T09:20:45.318Z,13.13
2022-10-18T09:23:20.162Z,13.87
2022-10-18T09:25:48.535Z,15.02
2022-10-18T09:28:20.306Z,16.72
2022-10-18T09:30:59.798Z,18.11
2022-10-18T09:33:39.387Z,19.51
2022-10-18T09:36:09.441Z,20.81
2022-10-18T09:38:43.482Z,21.37
2022-10-18T09:41:16.905Z,22.38
2022-10-18T09:43:52.295Z,22.69
2022-10-18T09:46:23.239Z,23.13
2022-10-18T09:48:53.175Z,23.58
2022-10-18T09:51:22.309Z,23.82
2022-10-18T09:54:12.788Z,24.02
2022-10-18T09:56:45.185Z,24.62
2022-10-18T09:59:28.523Z,25.38
2022-10-18T10:01:56.920Z,24.97
2022-10-18T10:04:23.875Z,24.97
2022-10-18T10:06:51.459Z,23.66
2022-10-18T10:09:24.887Z,23.32
2022-10-18T10:11:52.949Z,23.91
2022-10-18T10:14:25.973Z,24.33
2022-10-18T10:16:54.956Z,24.60
2022-10-18T10:19:25.240Z,24.95
2022-10-18T10:21:56.873Z,25.20
2022-10-18T10:24:35.378Z,25.51
2022-10-18T10:27:06.150Z,25.30
2022-10-18T10:29:56.776Z,25.61
2022-10-18T10:32:30.807Z,25.34
2022-10-18T10:34:59.386Z,25.46
2022-10-18T10:37:36.980Z,25.69
2022-10-18T10:40:20.546Z,25.65
2022-10-18T10:43:08.741Z,26.31
2022-10-18T10:45:58.539Z,25.99
2022-10-18T10:48:29.911Z,25.99
2022-10-18T10:51:06.225Z,25.91
2022-10-18T10:53:41.731Z,26.06
2022-10-18T10:56:21.205Z,25.44
2022-10-18T10:58:48.618Z,25.08
2022-10-18T11:01:22.938Z,24.81
2022-10-18T11:03:51.472Z,24.01
2022-10-18T11:06:51.039Z,23.47
2022-10-18T11:09:45.123Z,22.85
2022-10-18T11:12:23.960Z,21.88
2022-10-18T11:14:58.103Z,20.86
2022-10-18T11:17:34.513Z,19.95
2022-10-18T11:20:24.863Z,19.68
2022-10-18T11:23:03.375Z,19.32
2022-10-18T11:26:03.482Z,19.11
2022-10-18T11:29:09.096Z,18.75
2022-10-18T11:31:41.706Z,18.63
2022-10-18T11:34:26.417Z,18.58
2022-10-18T11:37:22.977Z,18.51
2022-10-18T11:39:55.069Z,18.45
2022-10-18T11:42:29.987Z,18.26
2022-10-18T11:45:07.589Z,17.87
2022-10-18T11:47:42.227Z,17.49
2022-10-18T11:50:20.577Z,17.47
2022-10-18T11:52:55.125Z,17.71
2022-10-18T11:55:33.301Z,17.72
2022-10-18T11:58:11.525Z,17.34
2022-10-18T12:00:49.202Z,17.11
2022-10-18T12:03:25.186Z,16.94
2022-10-18T12:05:59.043Z,16.84
2022-10-18T12:08:29.403Z,16.59
2022-10-18T12:11:05.075Z,16.78
2022-10-18T12:13:37.008Z,16.90
2022-10-18T12:16:07.907Z,16.65
2022-10-18T12:18:39.453Z,16.46
2022-10-18T12:21:06.860Z,16.20
2022-10-18T12:23:42.539Z,16.05
2022-10-18T12:26:11.240Z,16.08
2022-10-18T12:28:47.495Z,16.09
2022-10-18T12:31:22.136Z,16.04
2022-10-18T12:33:51.577Z,16.05
2022-10-18T12:36:40.026Z,15.97
2022-10-18T12:39:11.470Z,15.93
2022-10-18T12:41:38.681Z,15.77
2022-10-18T12:44:07.979Z,15.83
2022-10-18T12:46:48.671Z,15.90
2022-10-18T12:49:21.906Z,16.05
2022-10-18T12:51:54.050Z,16.18
2022-10-18T12:54:27.124Z,16.19
2022-10-18T12:56:53.888Z,16.16
2022-10-18T12:59:51.200Z,16.12
2022-10-18T13:02:26.142Z,16.12
2022-10-18T13:04:53.177Z,16.05
2022-10-18T13:07:32.560Z,15.93
2022-10-18T13:10:39.332Z,15.70
2022-10-18T13:13:39.142Z,15.69
2022-10-18T13:16:20.506Z,15.60
2022-10-18T13:18:54.457Z,15.26
2022-10-18T13:21:39.690Z,15.32
2022-10-18T13:24:20.144Z,15.40
2022-10-18T13:27:18.027Z,15.48
2022-10-18T13:30:05.692Z,15.55
2022-10-18T13:32:38.414Z,15.42
2022-10-18T13:35:46.652Z,15.32
2022-10-18T13:38:35.880Z,15.14
2022-10-18T13:41:04.719Z,14.96
2022-10-18T13:44:09.422Z,15.00
2022-10-18T13:47:11.493Z,15.06
2022-10-18T13:49:50.696Z,15.07
2022-10-18T13:52:25.885Z,15.14
2022-10-18T13:55:02.907Z,15.12
2022-10-18T13:57:45.507Z,15.15
2022-10-18T14:00:29.476Z,15.17
2022-10-18T14:03:44.503Z,15.16
2022-10-18T14:06:11.991Z,15.14
2022-10-18T14:08:44.513Z,15.16
2022-10-18T14:11:21.673Z,15.14
2022-10-18T14:13:54.827Z,15.16
2022-10-18T14:16:34.681Z,15.19
2022-10-18T14:19:13.738Z,15.22
2022-10-18T14:21:47.844Z,15.27
2022-10-18T14:24:21.694Z,15.21
2022-10-18T14:26:48.550Z,15.21
2022-10-18T14:29:19.557Z,15.16
2022-10-18T14:31:53.343Z,15.21
2022-10-18T14:34:21.151Z,15.13
2022-10-18T14:36:50.122Z,15.00
2022-10-18T14:39:22.685Z,14.93
2022-10-18T14:41:51.419Z,14.83
2022-10-18T14:44:21.526Z,14.73
2022-10-18T14:46:50.152Z,14.64
2022-10-18T14:49:18.520Z,14.53
2022-10-18T14:51:48.841Z,14.35
2022-10-18T14:54:18.363Z,14.38
2022-10-18T14:56:47.698Z,14.18
2022-10-18T14:59:20.615Z,14.19
2022-10-18T15:01:57.178Z,14.15
2022-10-18T15:04:32.934Z,14.02
2022-10-18T15:07:01.569Z,14.11
2022-10-18T15:09:29.454Z,14.10
2022-10-18T15:11:58.298Z,14.10
2022-10-18T15:14:28.014Z,14.10
2022-10-18T15:17:02.691Z,14.11
2022-10-18T15:19:32.727Z,14.10
2022-10-18T15:25:15.646Z,14.13
2022-10-18T15:27:47.179Z,14.17
2022-10-18T15:30:22.862Z,14.11
2022-10-18T15:32:52.225Z,14.04
2022-10-18T15:35:26.308Z,13.92
2022-10-18T15:37:55.831Z,13.77
2022-10-18T15:40:38.216Z,13.83
2022-10-18T15:43:34.153Z,13.75
2022-10-18T15:46:06.488Z,13.56
2022-10-18T15:48:36.460Z,13.57
2022-10-18T15:51:07.254Z,13.56
2022-10-18T15:53:50.483Z,13.48
2022-10-18T15:56:41.967Z,13.46
2022-10-18T15:59:23.049Z,13.38
2022-10-18T16:01:51.797Z,13.21
2022-10-18T16:04:25.375Z,13.08
2022-10-18T16:06:54.267Z,12.99
2022-10-18T16:09:22.241Z,13.17
2022-10-18T16:11:56.366Z,13.16
2022-10-18T16:14:26.163Z,13.08
2022-10-18T16:16:55.931Z,13.00
2022-10-18T16:19:22.943Z,13.03
2022-10-18T16:21:50.987Z,13.03
2022-10-18T16:24:18.527Z,12.94
2022-10-18T16:26:47.818Z,12.88
2022-10-18T16:29:16.992Z,13.02
2022-10-18T16:31:44.078Z,12.77
2022-10-18T16:34:14.973Z,12.69
2022-10-18T16:36:42.053Z,12.88
2022-10-18T16:39:15.472Z,12.87
2022-10-18T16:41:43.058Z,12.88
2022-10-18T16:44:10.208Z,12.89
2022-10-18T16:46:37.441Z,12.83
2022-10-18T16:49:05.543Z,12.81
2022-10-18T16:51:35.827Z,12.76
2022-10-18T16:54:05.507Z,12.54
2022-10-18T16:56:33.660Z,12.64
2022-10-18T16:59:03.314Z,12.88
2022-10-18T17:01:30.267Z,12.56
2022-10-18T17:03:57.127Z,12.84
2022-10-18T17:06:26.774Z,12.81
2022-10-18T17:08:56.125Z,12.76
2022-10-18T17:11:25.120Z,12.80
2022-10-18T17:13:52.277Z,12.79
2022-10-18T17:16:23.147Z,12.81
2022-10-18T17:18:50.070Z,12.78
2022-10-18T17:21:16.858Z,12.74
2022-10-18T17:23:43.571Z,12.74
2022-10-18T17:26:28.366Z,12.59
2022-10-18T17:28:57.854Z,12.46
2022-10-18T17:31:25.017Z,12.39
2022-10-18T17:33:54.695Z,12.28
2022-10-18T17:36:21.596Z,12.23
2022-10-18T17:38:50.695Z,12.22
2022-10-18T17:41:18.945Z,12.20
2022-10-18T17:43:46.022Z,12.24
2022-10-18T17:46:14.310Z,12.31
2022-10-18T17:48:41.088Z,12.30
2022-10-18T17:51:08.814Z,12.36
2022-10-18T17:53:35.741Z,12.32
2022-10-18T17:56:04.152Z,12.42
2022-10-18T17:58:32.468Z,12.44
2022-10-18T18:01:08.972Z,12.41
2022-10-18T18:03:35.806Z,12.41
2022-10-18T18:06:12.014Z,12.38
2022-10-18T18:08:39.074Z,12.32
2022-10-18T18:11:06.344Z,12.27
2022-10-18T18:13:34.938Z,12.22
2022-10-18T18:16:10.933Z,12.16
2022-10-18T18:18:37.711Z,12.11
2022-10-18T18:21:04.637Z,12.11
2022-10-18T18:23:31.430Z,11.98
2022-10-18T18:25:58.403Z,12.04
2022-10-18T18:28:25.389Z,12.04
2022-10-18T18:30:53.613Z,12.04
2022-10-18T18:33:20.566Z,11.95
2022-10-18T18:35:55.099Z,11.96
2022-10-18T18:38:21.884Z,11.91
2022-10-18T18:40:48.658Z,11.88
2022-10-18T18:43:23.530Z,11.85
2022-10-18T18:45:51.960Z,11.80
2022-10-18T18:48:20.166Z,11.82
2022-10-18T18:50:51.896Z,11.71
2022-10-18T18:53:19.493Z,11.60
2022-10-18T18:55:46.512Z,11.45
2022-10-18T18:58:13.328Z,11.32
2022-10-18T19:00:44.383Z,11.29
2022-10-18T19:03:11.667Z,11.23
2022-10-18T19:05:39.873Z,11.16
2022-10-18T19:08:06.910Z,11.10
2022-10-18T19:10:33.713Z,11.05
2022-10-18T19:13:00.612Z,11.04
2022-10-18T19:15:27.516Z,11.21
2022-10-18T19:17:55.316Z,11.25
2022-10-18T19:20:22.506Z,11.23
2022-10-18T19:22:50.736Z,11.23
2022-10-18T19:25:17.541Z,11.28
2022-10-18T19:27:44.344Z,11.30
2022-10-18T19:30:12.046Z,11.32
2022-10-18T19:32:38.913Z,11.36
2022-10-18T19:35:06.005Z,11.44
2022-10-18T19:37:33.200Z,11.28
2022-10-18T19:40:01.520Z,11.23
2022-10-18T19:42:31.290Z,11.22
2022-10-18T19:44:58.543Z,11.25
2022-10-18T19:47:25.263Z,11.28
2022-10-18T19:49:53.835Z,11.31
2022-10-18T19:52:20.926Z,11.23
2022-10-18T19:54:49.601Z,11.25
2022-10-18T19:57:17.761Z,11.14
2022-10-18T19:59:44.660Z,11.24
2022-10-18T20:02:14.503Z,11.19
2022-10-18T20:04:41.586Z,11.13
2022-10-18T20:07:08.417Z,11.15
2022-10-18T20:09:35.333Z,11.15
2022-10-18T20:12:02.302Z,11.13
2022-10-18T20:14:30.443Z,11.12
2022-10-18T20:16:57.308Z,11.13
2022-10-18T20:19:24.409Z,11.15
2022-10-18T20:21:51.259Z,11.22
2022-10-18T20:24:18.197Z,11.22
2022-10-18T20:26:45.290Z,11.22
2022-10-18T20:29:13.637Z,11.27
2022-10-18T20:31:41.860Z,11.21
2022-10-18T20:34:11.583Z,11.24
2022-10-18T20:36:39.066Z,11.21
2022-10-18T20:39:06.687Z,11.16
2022-10-18T20:41:35.527Z,11.17
2022-10-18T20:44:04.186Z,11.12
2022-10-18T20:46:32.837Z,11.07
2022-10-18T20:49:01.263Z,11.00
2022-10-18T20:51:28.252Z,11.01
2022-10-18T20:53:55.373Z,10.92
2022-10-18T20:56:25.466Z,10.92
2022-10-18T20:58:55.032Z,10.90
2022-10-18T21:01:22.748Z,10.94
2022-10-18T21:03:51.149Z,10.95
2022-10-18T21:06:21.251Z,10.93
2022-10-18T21:08:52.149Z,10.90
2022-10-18T21:11:18.927Z,10.84
2022-10-18T21:13:50.201Z,10.84
2022-10-18T21:16:16.971Z,10.88
2022-10-18T21:18:43.792Z,10.88
2022-10-18T21:23:41.758Z,10.88
2022-10-18T21:26:13.403Z,10.85
2022-10-18T21:28:40.497Z,10.87
2022-10-18T21:31:09.209Z,10.81
2022-10-18T21:33:35.975Z,10.80
2022-10-18T21:36:02.725Z,10.89
2022-10-18T21:38:29.671Z,10.91
2022-10-18T21:40:57.805Z,10.88
2022-10-18T21:43:24.597Z,10.86
2022-10-18T21:45:57.477Z,10.89
2022-10-18T21:48:24.543Z,10.85
2022-10-18T21:50:51.272Z,10.76
2022-10-18T21:53:18.003Z,10.60
2022-10-18T21:55:44.798Z,10.89
2022-10-18T21:58:12.990Z,10.89
2022-10-18T22:00:39.902Z,10.87
2022-10-18T22:03:07.591Z,10.84
2022-10-18T22:05:34.705Z,10.91
2022-10-18T22:08:01.475Z,10.87
2022-10-18T22:10:28.487Z,10.98
2022-10-18T22:12:55.584Z,10.98
2022-10-18T22:15:23.801Z,11.05
2022-10-18T22:17:50.601Z,11.06
2022-10-18T22:20:17.511Z,11.11
2022-10-18T22:22:44.350Z,11.12
2022-10-18T22:25:11.443Z,11.16
2022-10-18T22:27:38.618Z,11.12
2022-10-18T22:30:06.404Z,11.23
2022-10-18T22:32:34.488Z,11.26
2022-10-18T22:35:01.271Z,11.27
2022-10-18T22:37:28.112Z,11.31
2022-10-18T22:39:54.872Z,11.33
2022-10-18T22:42:21.614Z,11.34
2022-10-18T22:44:48.397Z,11.42
2022-10-18T22:47:15.438Z,11.45
2022-10-18T22:49:43.760Z,11.43
2022-10-18T22:52:10.591Z,11.48
2022-10-18T22:54:37.653Z,11.50
2022-10-18T22:57:04.399Z,11.50
2022-10-18T22:59:31.144Z,11.53
2022-10-18T23:01:57.903Z,11.54
2022-10-18T23:04:24.673Z,11.57
2022-10-18T23:06:52.875Z,11.57
2022-10-18T23:09:19.612Z,11.58
2022-10-18T23:11:48.100Z,11.60
2022-10-18T23:14:14.920Z,11.60
2022-10-18T23:16:41.828Z,11.57
2022-10-18T23:19:14.809Z,11.52
2022-10-18T23:21:41.547Z,11.56
2022-10-18T23:24:09.711Z,11.55
2022-10-18T23:26:36.494Z,11.51
2022-10-18T23:29:03.483Z,11.52
2022-10-18T23:31:32.572Z,11.51
2022-10-18T23:34:01.459Z,11.50
2022-10-18T23:36:28.489Z,11.51
2022-10-18T23:38:55.658Z,11.48
2022-10-18T23:41:24.669Z,11.45
2022-10-18T23:43:51.820Z,11.39
2022-10-18T23:46:19.582Z,11.38
2022-10-18T23:48:47.247Z,11.44
2022-10-18T23:51:14.514Z,11.41
2022-10-18T23:53:41.381Z,11.31
2022-10-18T23:56:10.405Z,11.33
2022-10-18T23:58:39.861Z,11.37
